This is the latest recevied weather packets stored in our database for station/object N4OGP-WX. If no packets are shown the sender has not sent any weather packets the latest 10 day(s).
| Time | Temp. | Humidity | Pressure | Rain* | Wind** | Luminosity | Snow |
|---|---|---|---|---|---|---|---|
| 1777358657 | 23.89° C | 42% | 1020.4 hPa | 0 mm | - | - | - |
| 1777358567 | 22.78° C | 90% | 1014.4 hPa | 0 mm | - | - | - |
| 1777358507 | 23.89° C | 42% | 1020.4 hPa | 0 mm | - | - | - |
| 1777358417 | 22.78° C | 90% | 1014.4 hPa | 0 mm | - | - | - |
| 1777358327 | 23.89° C | 42% | 1020.4 hPa | 0 mm | - | - | - |
| 1777358237 | 22.78° C | 91% | 1014.5 hPa | 0 mm | - | - | - |
| 1777358147 | 22.78° C | 90% | 1014.5 hPa | 0 mm | - | - | - |
| 1777358087 | 22.78° C | 91% | 1014.5 hPa | 0 mm | - | - | - |
| 1777358027 | 23.89° C | 42% | 1020.4 hPa | 0 mm | - | - | - |
| 1777357937 | 22.78° C | 90% | 1014.5 hPa | 0 mm | - | - | - |
| 1777357877 | 23.89° C | 42% | 1020.4 hPa | 0 mm | - | - | - |
| 1777357817 | 22.78° C | 90% | 1014.5 hPa | 0 mm | - | - | - |
| 1777357757 | 22.78° C | 91% | 1014.5 hPa | 0 mm | - | - | - |
| 1777357667 | 22.78° C | 90% | 1014.5 hPa | 0 mm | - | - | - |
| 1777357607 | 22.78° C | 90% | 1014.6 hPa | 0 mm | - | - | - |
| 1777357547 | 23.89° C | 42% | 1020.4 hPa | 0 mm | - | - | - |
| 1777357487 | 22.78° C | 90% | 1014.6 hPa | 0 mm | - | - | - |
| 1777357427 | 23.89° C | 42% | 1020.4 hPa | 0 mm | - | - | - |
| 1777357367 | 23.89° C | 42% | 1020.4 hPa | 0 mm | - | - | - |
| 1777357307 | 23.89° C | 42% | 1020.4 hPa | 0 mm | - | - | - |
| 1777357247 | 22.78° C | 90% | 1014.6 hPa | 0 mm | - | - | - |
| 1777357187 | 22.78° C | 91% | 1014.6 hPa | 0 mm | - | - | - |
| 1777357127 | 22.78° C | 91% | 1014.6 hPa | 0 mm | - | - | - |
| 1777357067 | 22.78° C | 90% | 1014.6 hPa | 0 mm | - | - | - |
| 1777356977 | 22.78° C | 90% | 1014.6 hPa | 0 mm | - | - | - |
* Rain latest hour (hover to see other rain measurements)
** Current wind speed in m/s (hover to see current wind gust speed)